Millenium Air

Millenium Air Since 1998



 METAR AND TAF INFORMATION
METAR FOR EGFF
ADDS - METARS form results

(0219 UTC 22 April 2021)
Data provider http://aviationweather.gov/metar/data/
 
METAR text: EGFF 220150Z AUTO 09011KT 9999 NCD 06/01 Q1025
Conditions at: EGFF (CARDIFF-WALES AR, GB) observed 0150 UTC 22 April 2021
Temperature: 6.0°C (43°F)
Dewpoint: 1.0°C (34°F) [RH = 70%]
Pressure (altimeter): 30.27 inches Hg (1025.0 mb)
Winds: from the E (90 degrees) at 13 MPH (11 knots; 5.7 m/s)
Visibility: 6 or more miles (10+ km)
Ceiling: at least 12,000 feet AGL
Clouds: sky clear below 12,000 feet AGL
Weather: no significant weather observed at this time

METAR text: EGFF 220120Z AUTO 08013KT 9999 NCD 07/02 Q1025
Conditions at: EGFF (CARDIFF-WALES AR, GB) observed 0120 UTC 22 April 2021
Temperature: 7.0°C (45°F)
Dewpoint: 2.0°C (36°F) [RH = 70%]
Pressure (altimeter): 30.27 inches Hg (1025.0 mb)
Winds: from the E (80 degrees) at 15 MPH (13 knots; 6.7 m/s)
Visibility: 6 or more miles (10+ km)
Ceiling: at least 12,000 feet AGL
Clouds: sky clear below 12,000 feet AGL
Weather: no significant weather observed at this time

Forecast for: EGFF (CARDIFF-WALES AR, GB)
Text: TAF EGFF 212253Z 2200/2224 07012KT CAVOK
Forecast period: 0000 UTC 22 April 2021 to 0000 UTC 23 April 2021
Forecast type: FROM: standard forecast or significant change
Winds: from the ENE (70 degrees) at 14 MPH (12 knots; 6.2 m/s)
Visibility: 6 or more miles (10+ km)
Ceiling: unknown
Clouds: missing
Weather: NSW  (no significant weather)

 AIRPORT MAP

 RUNWAY INFORMATION
Runway 12 Runway length 7848 ft Runway width 151 ft
Runway elevation 205 ft Runway displaced threshold 797 ft Runway heading 117
Runway 30 Runway length 7848 ft Runway width 151 ft
Runway elevation 213 ft Runway displaced threshold 551 ft Runway heading 297

 AIRPORT FREQUENCIES
Type APP Name Cardiff Ap Frequency 119.15 MHZ
Type APP Name Cardiff Ra Frequency 125.85 MHZ
Type ATIS Name ATIS Frequency 132.475 MHZ
Type Radar Name Frequency 133.6 MHZ
Type TWR Name Cardiff Tw Frequency 133.1 MHZ

 AIRPORT NEAR NAVIGATION AIDS